sensor_id;sensor_type;location;lat;lon;timestamp;P1;P2;P0
69224;PMS1003;56333;51.306;17.056;2023-05-17T00:00:26;15.40;12.00;
69224;PMS1003;56333;51.306;17.056;2023-05-17T00:01:58;14.10;12.60;
69224;PMS1003;56333;51.306;17.056;2023-05-17T00:03:26;15.40;13.10;
69224;PMS1003;56333;51.306;17.056;2023-05-17T00:04:56;15.20;13.00;
69224;PMS1003;56333;51.306;17.056;2023-05-17T00:06:24;15.70;12.20;
69224;PMS1003;56333;51.306;17.056;2023-05-17T00:07:54;13.60;11.20;
69224;PMS1003;56333;51.306;17.056;2023-05-17T00:09:23;17.40;11.90;
69224;PMS1003;56333;51.306;17.056;2023-05-17T00:10:52;13.90;11.10;
69224;PMS1003;56333;51.306;17.056;2023-05-17T00:12:22;13.00;11.50;
69224;PMS1003;56333;51.306;17.056;2023-05-17T00:13:50;15.00;11.00;
69224;PMS1003;56333;51.306;17.056;2023-05-17T00:15:20;12.20;10.90;
69224;PMS1003;56333;51.306;17.056;2023-05-17T00:16:49;12.80;11.20;
69224;PMS1003;56333;51.306;17.056;2023-05-17T00:18:18;13.80;11.60;
69224;PMS1003;56333;51.306;17.056;2023-05-17T00:19:47;13.10;11.60;
69224;PMS1003;56333;51.306;17.056;2023-05-17T00:21:16;13.00;10.70;
69224;PMS1003;56333;51.306;17.056;2023-05-17T00:22:45;12.10;10.80;
69224;PMS1003;56333;51.306;17.056;2023-05-17T00:24:14;12.70;10.80;
69224;PMS1003;56333;51.306;17.056;2023-05-17T00:25:43;13.00;10.80;
69224;PMS1003;56333;51.306;17.056;2023-05-17T00:27:13;16.20;11.20;
69224;PMS1003;56333;51.306;17.056;2023-05-17T00:28:42;13.30;11.20;
69224;PMS1003;56333;51.306;17.056;2023-05-17T00:30:13;13.20;11.60;
69224;PMS1003;56333;51.306;17.056;2023-05-17T00:31:42;13.00;11.40;
69224;PMS1003;56333;51.306;17.056;2023-05-17T00:33:11;14.10;11.90;
69224;PMS1003;56333;51.306;17.056;2023-05-17T00:34:41;12.20;10.40;
69224;PMS1003;56333;51.306;17.056;2023-05-17T00:36:09;13.60;10.20;
69224;PMS1003;56333;51.306;17.056;2023-05-17T00:37:39;12.40;9.90;
69224;PMS1003;56333;51.306;17.056;2023-05-17T00:39:12;12.30;10.00;
69224;PMS1003;56333;51.306;17.056;2023-05-17T00:40:42;12.00;10.20;
69224;PMS1003;56333;51.306;17.056;2023-05-17T00:42:11;11.90;9.90;
69224;PMS1003;56333;51.306;17.056;2023-05-17T00:43:41;12.30;10.50;
69224;PMS1003;56333;51.306;17.056;2023-05-17T00:45:11;12.90;10.60;
69224;PMS1003;56333;51.306;17.056;2023-05-17T00:46:41;12.50;10.00;
69224;PMS1003;56333;51.306;17.056;2023-05-17T00:48:11;13.00;9.90;
69224;PMS1003;56333;51.306;17.056;2023-05-17T00:49:43;11.50;9.40;
69224;PMS1003;56333;51.306;17.056;2023-05-17T00:51:13;12.40;9.80;
69224;PMS1003;56333;51.306;17.056;2023-05-17T00:52:43;11.80;10.00;
69224;PMS1003;56333;51.306;17.056;2023-05-17T00:54:13;11.80;9.90;
69224;PMS1003;56333;51.306;17.056;2023-05-17T00:55:44;13.30;10.20;
69224;PMS1003;56333;51.306;17.056;2023-05-17T00:57:13;12.20;10.50;
69224;PMS1003;56333;51.306;17.056;2023-05-17T00:58:42;15.10;10.30;
69224;PMS1003;56333;51.306;17.056;2023-05-17T01:00:13;13.30;10.20;
69224;PMS1003;56333;51.306;17.056;2023-05-17T01:01:44;11.80;10.20;
69224;PMS1003;56333;51.306;17.056;2023-05-17T01:03:14;10.90;9.70;
69224;PMS1003;56333;51.306;17.056;2023-05-17T01:04:43;11.60;9.10;
69224;PMS1003;56333;51.306;17.056;2023-05-17T01:06:13;11.70;8.90;
69224;PMS1003;56333;51.306;17.056;2023-05-17T01:07:42;11.70;8.90;
69224;PMS1003;56333;51.306;17.056;2023-05-17T01:09:11;11.20;9.80;
69224;PMS1003;56333;51.306;17.056;2023-05-17T01:10:48;12.20;9.80;
69224;PMS1003;56333;51.306;17.056;2023-05-17T01:12:40;13.00;10.20;
69224;PMS1003;56333;51.306;17.056;2023-05-17T01:14:29;11.70;9.80;
69224;PMS1003;56333;51.306;17.056;2023-05-17T01:16:12;12.70;9.50;
69224;PMS1003;56333;51.306;17.056;2023-05-17T01:18:05;13.20;8.50;
69224;PMS1003;56333;51.306;17.056;2023-05-17T01:20:04;10.80;8.70;
69224;PMS1003;56333;51.306;17.056;2023-05-17T01:21:56;10.10;8.40;
69224;PMS1003;56333;51.306;17.056;2023-05-17T01:23:50;12.40;8.90;
69224;PMS1003;56333;51.306;17.056;2023-05-17T01:25:39;11.20;8.70;
69224;PMS1003;56333;51.306;17.056;2023-05-17T01:27:18;10.50;8.50;
69224;PMS1003;56333;51.306;17.056;2023-05-17T01:30:23;14.20;8.70;
69224;PMS1003;56333;51.306;17.056;2023-05-17T01:31:54;10.60;8.00;
69224;PMS1003;56333;51.306;17.056;2023-05-17T01:33:24;10.60;8.00;
69224;PMS1003;56333;51.306;17.056;2023-05-17T01:34:53;9.00;7.80;
69224;PMS1003;56333;51.306;17.056;2023-05-17T01:36:21;10.40;8.10;
69224;PMS1003;56333;51.306;17.056;2023-05-17T01:37:52;10.80;7.90;
69224;PMS1003;56333;51.306;17.056;2023-05-17T01:39:21;12.70;8.20;
69224;PMS1003;56333;51.306;17.056;2023-05-17T01:40:57;11.80;7.90;
69224;PMS1003;56333;51.306;17.056;2023-05-17T01:42:31;10.70;8.10;
69224;PMS1003;56333;51.306;17.056;2023-05-17T01:44:09;10.50;7.40;
69224;PMS1003;56333;51.306;17.056;2023-05-17T01:45:48;10.50;7.90;
69224;PMS1003;56333;51.306;17.056;2023-05-17T01:47:32;9.90;7.40;
69224;PMS1003;56333;51.306;17.056;2023-05-17T01:49:13;9.70;7.80;
69224;PMS1003;56333;51.306;17.056;2023-05-17T01:50:47;11.50;8.10;
69224;PMS1003;56333;51.306;17.056;2023-05-17T01:52:22;11.10;8.30;
69224;PMS1003;56333;51.306;17.056;2023-05-17T01:54:03;11.00;8.00;
69224;PMS1003;56333;51.306;17.056;2023-05-17T01:55:42;11.50;8.30;
69224;PMS1003;56333;51.306;17.056;2023-05-17T01:57:15;11.90;8.50;
69224;PMS1003;56333;51.306;17.056;2023-05-17T01:58:51;11.20;7.30;
69224;PMS1003;56333;51.306;17.056;2023-05-17T02:00:22;10.00;7.50;
69224;PMS1003;56333;51.306;17.056;2023-05-17T02:01:54;9.40;7.30;
69224;PMS1003;56333;51.306;17.056;2023-05-17T02:03:29;9.00;7.30;
69224;PMS1003;56333;51.306;17.056;2023-05-17T02:04:58;11.20;7.40;
69224;PMS1003;56333;51.306;17.056;2023-05-17T02:06:27;10.50;8.00;
69224;PMS1003;56333;51.306;17.056;2023-05-17T02:07:56;9.30;7.40;
69224;PMS1003;56333;51.306;17.056;2023-05-17T02:09:26;10.00;7.60;
69224;PMS1003;56333;51.306;17.056;2023-05-17T02:10:54;12.10;7.40;
69224;PMS1003;56333;51.306;17.056;2023-05-17T02:12:23;10.80;7.40;
69224;PMS1003;56333;51.306;17.056;2023-05-17T02:13:51;10.90;7.20;
69224;PMS1003;56333;51.306;17.056;2023-05-17T02:15:21;9.50;6.50;
69224;PMS1003;56333;51.306;17.056;2023-05-17T02:16:50;12.10;6.90;
69224;PMS1003;56333;51.306;17.056;2023-05-17T02:18:19;9.80;6.90;
69224;PMS1003;56333;51.306;17.056;2023-05-17T02:19:48;11.10;6.70;
69224;PMS1003;56333;51.306;17.056;2023-05-17T02:21:17;10.80;7.10;
69224;PMS1003;56333;51.306;17.056;2023-05-17T02:22:46;10.20;7.00;
69224;PMS1003;56333;51.306;17.056;2023-05-17T02:24:15;9.10;6.30;
69224;PMS1003;56333;51.306;17.056;2023-05-17T02:25:44;10.50;6.40;
69224;PMS1003;56333;51.306;17.056;2023-05-17T02:27:14;9.70;6.00;
69224;PMS1003;56333;51.306;17.056;2023-05-17T02:28:42;9.50;6.20;
69224;PMS1003;56333;51.306;17.056;2023-05-17T02:30:12;8.20;5.80;
69224;PMS1003;56333;51.306;17.056;2023-05-17T02:31:42;9.10;6.50;
69224;PMS1003;56333;51.306;17.056;2023-05-17T02:33:11;10.50;6.20;
69224;PMS1003;56333;51.306;17.056;2023-05-17T02:34:40;9.10;6.30;
69224;PMS1003;56333;51.306;17.056;2023-05-17T02:36:09;9.40;6.40;
69224;PMS1003;56333;51.306;17.056;2023-05-17T02:37:39;9.70;6.50;
69224;PMS1003;56333;51.306;17.056;2023-05-17T02:39:08;10.80;6.00;
69224;PMS1003;56333;51.306;17.056;2023-05-17T02:40:37;10.00;5.80;
69224;PMS1003;56333;51.306;17.056;2023-05-17T02:42:08;8.80;5.30;
69224;PMS1003;56333;51.306;17.056;2023-05-17T02:43:38;7.60;5.70;
69224;PMS1003;56333;51.306;17.056;2023-05-17T02:45:10;10.30;5.90;
69224;PMS1003;56333;51.306;17.056;2023-05-17T02:46:39;7.90;6.10;
69224;PMS1003;56333;51.306;17.056;2023-05-17T02:48:08;9.80;6.00;
69224;PMS1003;56333;51.306;17.056;2023-05-17T02:49:37;9.30;6.40;
69224;PMS1003;56333;51.306;17.056;2023-05-17T02:51:06;10.10;6.40;
69224;PMS1003;56333;51.306;17.056;2023-05-17T02:52:35;10.50;6.10;
69224;PMS1003;56333;51.306;17.056;2023-05-17T02:54:05;12.30;6.10;
69224;PMS1003;56333;51.306;17.056;2023-05-17T02:55:34;9.70;5.70;
69224;PMS1003;56333;51.306;17.056;2023-05-17T02:57:03;10.00;5.90;
69224;PMS1003;56333;51.306;17.056;2023-05-17T02:58:32;10.10;5.80;
69224;PMS1003;56333;51.306;17.056;2023-05-17T03:00:02;9.30;6.10;
69224;PMS1003;56333;51.306;17.056;2023-05-17T03:01:33;10.30;6.50;
69224;PMS1003;56333;51.306;17.056;2023-05-17T03:03:03;11.50;6.40;
69224;PMS1003;56333;51.306;17.056;2023-05-17T03:04:34;9.70;6.10;
69224;PMS1003;56333;51.306;17.056;2023-05-17T03:06:05;7.70;5.60;
69224;PMS1003;56333;51.306;17.056;2023-05-17T03:07:34;9.90;5.80;
69224;PMS1003;56333;51.306;17.056;2023-05-17T03:09:03;7.30;5.40;
69224;PMS1003;56333;51.306;17.056;2023-05-17T03:10:33;9.40;5.70;
69224;PMS1003;56333;51.306;17.056;2023-05-17T03:12:03;10.40;5.90;
69224;PMS1003;56333;51.306;17.056;2023-05-17T03:13:33;10.10;5.90;
69224;PMS1003;56333;51.306;17.056;2023-05-17T03:15:02;11.70;6.40;
69224;PMS1003;56333;51.306;17.056;2023-05-17T03:16:32;11.00;6.20;
69224;PMS1003;56333;51.306;17.056;2023-05-17T03:18:02;9.70;6.10;
69224;PMS1003;56333;51.306;17.056;2023-05-17T03:19:31;8.20;5.10;
69224;PMS1003;56333;51.306;17.056;2023-05-17T03:21:00;7.80;5.60;
69224;PMS1003;56333;51.306;17.056;2023-05-17T03:22:29;10.80;5.40;
69224;PMS1003;56333;51.306;17.056;2023-05-17T03:23:58;8.70;5.20;
69224;PMS1003;56333;51.306;17.056;2023-05-17T03:25:28;11.70;5.50;
69224;PMS1003;56333;51.306;17.056;2023-05-17T03:26:57;12.10;5.80;
69224;PMS1003;56333;51.306;17.056;2023-05-17T03:28:26;9.20;5.50;
69224;PMS1003;56333;51.306;17.056;2023-05-17T03:29:55;9.70;5.50;
69224;PMS1003;56333;51.306;17.056;2023-05-17T03:31:24;10.10;6.00;
69224;PMS1003;56333;51.306;17.056;2023-05-17T03:32:55;9.60;5.70;
69224;PMS1003;56333;51.306;17.056;2023-05-17T03:34:24;10.10;5.40;
69224;PMS1003;56333;51.306;17.056;2023-05-17T03:35:53;10.60;4.90;
69224;PMS1003;56333;51.306;17.056;2023-05-17T03:37:22;7.90;4.30;
69224;PMS1003;56333;51.306;17.056;2023-05-17T03:38:51;8.80;5.00;
69224;PMS1003;56333;51.306;17.056;2023-05-17T03:40:20;11.80;5.00;
69224;PMS1003;56333;51.306;17.056;2023-05-17T03:41:51;8.80;5.10;
69224;PMS1003;56333;51.306;17.056;2023-05-17T03:43:20;9.30;4.90;
69224;PMS1003;56333;51.306;17.056;2023-05-17T03:44:50;7.90;5.50;
69224;PMS1003;56333;51.306;17.056;2023-05-17T03:46:20;11.10;5.20;
69224;PMS1003;56333;51.306;17.056;2023-05-17T03:47:49;7.90;4.70;
69224;PMS1003;56333;51.306;17.056;2023-05-17T03:49:18;7.90;4.60;
69224;PMS1003;56333;51.306;17.056;2023-05-17T03:50:47;9.10;4.60;
69224;PMS1003;56333;51.306;17.056;2023-05-17T03:52:16;7.80;4.70;
69224;PMS1003;56333;51.306;17.056;2023-05-17T03:53:45;9.10;4.70;
69224;PMS1003;56333;51.306;17.056;2023-05-17T03:55:14;10.30;4.50;
69224;PMS1003;56333;51.306;17.056;2023-05-17T03:56:43;7.40;4.60;
69224;PMS1003;56333;51.306;17.056;2023-05-17T03:58:14;8.00;4.80;
69224;PMS1003;56333;51.306;17.056;2023-05-17T03:59:43;7.90;4.40;
69224;PMS1003;56333;51.306;17.056;2023-05-17T04:01:12;9.60;4.80;
69224;PMS1003;56333;51.306;17.056;2023-05-17T04:02:42;7.50;4.60;
69224;PMS1003;56333;51.306;17.056;2023-05-17T04:04:11;9.50;4.70;
69224;PMS1003;56333;51.306;17.056;2023-05-17T04:05:40;7.00;4.20;
69224;PMS1003;56333;51.306;17.056;2023-05-17T04:07:11;8.20;4.30;
69224;PMS1003;56333;51.306;17.056;2023-05-17T04:08:40;8.80;4.40;
69224;PMS1003;56333;51.306;17.056;2023-05-17T04:10:10;8.80;4.50;
69224;PMS1003;56333;51.306;17.056;2023-05-17T04:11:39;9.30;4.70;
69224;PMS1003;56333;51.306;17.056;2023-05-17T04:13:10;9.90;4.20;
69224;PMS1003;56333;51.306;17.056;2023-05-17T04:14:39;7.10;4.40;
69224;PMS1003;56333;51.306;17.056;2023-05-17T04:16:09;7.60;4.10;
69224;PMS1003;56333;51.306;17.056;2023-05-17T04:17:41;6.70;3.90;
69224;PMS1003;56333;51.306;17.056;2023-05-17T04:19:10;8.60;3.80;
69224;PMS1003;56333;51.306;17.056;2023-05-17T04:20:39;7.60;4.10;
69224;PMS1003;56333;51.306;17.056;2023-05-17T04:22:08;9.50;3.80;
69224;PMS1003;56333;51.306;17.056;2023-05-17T04:23:37;8.40;3.90;
69224;PMS1003;56333;51.306;17.056;2023-05-17T04:25:09;7.00;4.00;
69224;PMS1003;56333;51.306;17.056;2023-05-17T04:26:37;7.00;3.80;
69224;PMS1003;56333;51.306;17.056;2023-05-17T04:28:07;7.30;4.00;
69224;PMS1003;56333;51.306;17.056;2023-05-17T04:29:36;8.10;4.10;
69224;PMS1003;56333;51.306;17.056;2023-05-17T04:31:08;7.50;3.50;
69224;PMS1003;56333;51.306;17.056;2023-05-17T04:32:39;7.50;3.60;
69224;PMS1003;56333;51.306;17.056;2023-05-17T04:34:09;7.40;3.40;
69224;PMS1003;56333;51.306;17.056;2023-05-17T04:35:40;7.20;3.20;
69224;PMS1003;56333;51.306;17.056;2023-05-17T04:37:09;7.40;3.30;
69224;PMS1003;56333;51.306;17.056;2023-05-17T04:38:39;8.00;3.50;
69224;PMS1003;56333;51.306;17.056;2023-05-17T04:40:12;7.90;3.30;
69224;PMS1003;56333;51.306;17.056;2023-05-17T04:43:09;7.20;3.40;
69224;PMS1003;56333;51.306;17.056;2023-05-17T04:44:38;6.30;3.30;
69224;PMS1003;56333;51.306;17.056;2023-05-17T04:46:08;8.00;3.60;
69224;PMS1003;56333;51.306;17.056;2023-05-17T04:47:37;6.40;3.30;
69224;PMS1003;56333;51.306;17.056;2023-05-17T04:49:06;7.10;3.00;
69224;PMS1003;56333;51.306;17.056;2023-05-17T04:50:35;6.60;3.00;
69224;PMS1003;56333;51.306;17.056;2023-05-17T04:52:05;7.30;3.50;
69224;PMS1003;56333;51.306;17.056;2023-05-17T04:53:34;9.30;3.40;
69224;PMS1003;56333;51.306;17.056;2023-05-17T04:55:09;6.20;3.20;
69224;PMS1003;56333;51.306;17.056;2023-05-17T04:56:38;9.30;3.90;
69224;PMS1003;56333;51.306;17.056;2023-05-17T04:58:10;7.50;3.10;
69224;PMS1003;56333;51.306;17.056;2023-05-17T04:59:39;8.00;3.40;
69224;PMS1003;56333;51.306;17.056;2023-05-17T05:01:08;6.90;2.90;
69224;PMS1003;56333;51.306;17.056;2023-05-17T05:02:39;8.10;3.10;
69224;PMS1003;56333;51.306;17.056;2023-05-17T05:04:08;7.00;3.20;
69224;PMS1003;56333;51.306;17.056;2023-05-17T05:05:40;6.60;3.10;
69224;PMS1003;56333;51.306;17.056;2023-05-17T05:07:09;5.40;3.10;
69224;PMS1003;56333;51.306;17.056;2023-05-17T05:08:38;7.20;3.40;
69224;PMS1003;56333;51.306;17.056;2023-05-17T05:10:09;6.00;3.10;
69224;PMS1003;56333;51.306;17.056;2023-05-17T05:11:38;9.20;3.30;
69224;PMS1003;56333;51.306;17.056;2023-05-17T05:13:07;7.10;3.60;
69224;PMS1003;56333;51.306;17.056;2023-05-17T05:14:37;7.60;3.70;
69224;PMS1003;56333;51.306;17.056;2023-05-17T05:16:08;6.60;3.60;
69224;PMS1003;56333;51.306;17.056;2023-05-17T05:17:37;8.00;3.10;
69224;PMS1003;56333;51.306;17.056;2023-05-17T05:19:06;7.10;3.30;
69224;PMS1003;56333;51.306;17.056;2023-05-17T05:20:35;9.60;3.40;
69224;PMS1003;56333;51.306;17.056;2023-05-17T05:22:05;7.30;3.00;
69224;PMS1003;56333;51.306;17.056;2023-05-17T05:23:35;8.00;3.60;
69224;PMS1003;56333;51.306;17.056;2023-05-17T05:25:04;5.90;3.20;
69224;PMS1003;56333;51.306;17.056;2023-05-17T05:26:34;5.40;2.80;
69224;PMS1003;56333;51.306;17.056;2023-05-17T05:28:04;9.40;3.30;
69224;PMS1003;56333;51.306;17.056;2023-05-17T05:29:34;5.70;2.80;
69224;PMS1003;56333;51.306;17.056;2023-05-17T05:31:03;8.10;3.20;
69224;PMS1003;56333;51.306;17.056;2023-05-17T05:32:40;6.90;3.00;
69224;PMS1003;56333;51.306;17.056;2023-05-17T05:34:09;5.20;2.70;
69224;PMS1003;56333;51.306;17.056;2023-05-17T05:35:37;7.30;3.20;
69224;PMS1003;56333;51.306;17.056;2023-05-17T05:37:06;8.30;2.90;
69224;PMS1003;56333;51.306;17.056;2023-05-17T05:38:35;6.90;2.70;
69224;PMS1003;56333;51.306;17.056;2023-05-17T05:40:05;6.00;2.60;
69224;PMS1003;56333;51.306;17.056;2023-05-17T05:41:36;6.50;2.50;
69224;PMS1003;56333;51.306;17.056;2023-05-17T05:43:05;5.20;2.60;
69224;PMS1003;56333;51.306;17.056;2023-05-17T05:44:34;7.20;2.80;
69224;PMS1003;56333;51.306;17.056;2023-05-17T05:46:02;6.60;3.10;
69224;PMS1003;56333;51.306;17.056;2023-05-17T05:47:33;8.60;2.90;
69224;PMS1003;56333;51.306;17.056;2023-05-17T05:49:03;8.20;2.60;
69224;PMS1003;56333;51.306;17.056;2023-05-17T05:50:32;7.20;2.60;
69224;PMS1003;56333;51.306;17.056;2023-05-17T05:52:06;5.20;2.40;
69224;PMS1003;56333;51.306;17.056;2023-05-17T05:53:35;5.80;2.60;
69224;PMS1003;56333;51.306;17.056;2023-05-17T05:55:04;5.90;2.70;
69224;PMS1003;56333;51.306;17.056;2023-05-17T05:56:34;5.70;2.70;
69224;PMS1003;56333;51.306;17.056;2023-05-17T05:58:05;6.50;2.70;
69224;PMS1003;56333;51.306;17.056;2023-05-17T05:59:33;7.90;2.50;
69224;PMS1003;56333;51.306;17.056;2023-05-17T06:01:03;7.90;2.90;
69224;PMS1003;56333;51.306;17.056;2023-05-17T06:02:32;6.80;2.50;
69224;PMS1003;56333;51.306;17.056;2023-05-17T06:04:01;6.30;2.70;
69224;PMS1003;56333;51.306;17.056;2023-05-17T06:05:30;6.90;2.80;
69224;PMS1003;56333;51.306;17.056;2023-05-17T06:06:59;8.80;2.60;
69224;PMS1003;56333;51.306;17.056;2023-05-17T06:08:27;7.20;2.80;
69224;PMS1003;56333;51.306;17.056;2023-05-17T06:09:56;6.30;2.70;
69224;PMS1003;56333;51.306;17.056;2023-05-17T06:11:26;9.10;2.70;
69224;PMS1003;56333;51.306;17.056;2023-05-17T06:12:54;7.00;2.60;
69224;PMS1003;56333;51.306;17.056;2023-05-17T06:14:23;7.90;2.50;
69224;PMS1003;56333;51.306;17.056;2023-05-17T06:15:52;8.00;2.50;
69224;PMS1003;56333;51.306;17.056;2023-05-17T06:17:21;5.20;2.50;
69224;PMS1003;56333;51.306;17.056;2023-05-17T06:18:50;6.80;2.80;
69224;PMS1003;56333;51.306;17.056;2023-05-17T06:20:19;8.50;3.10;
69224;PMS1003;56333;51.306;17.056;2023-05-17T06:21:48;5.30;2.50;
69224;PMS1003;56333;51.306;17.056;2023-05-17T06:23:17;9.20;3.20;
69224;PMS1003;56333;51.306;17.056;2023-05-17T06:24:46;6.50;2.90;
69224;PMS1003;56333;51.306;17.056;2023-05-17T06:26:15;7.60;2.90;
69224;PMS1003;56333;51.306;17.056;2023-05-17T06:27:44;8.10;2.90;
69224;PMS1003;56333;51.306;17.056;2023-05-17T06:29:13;6.10;2.70;
69224;PMS1003;56333;51.306;17.056;2023-05-17T06:30:42;6.90;2.60;
69224;PMS1003;56333;51.306;17.056;2023-05-17T06:32:11;8.40;3.20;
69224;PMS1003;56333;51.306;17.056;2023-05-17T06:33:39;7.50;3.00;
69224;PMS1003;56333;51.306;17.056;2023-05-17T06:35:11;7.00;3.00;
69224;PMS1003;56333;51.306;17.056;2023-05-17T06:36:39;7.70;3.00;
69224;PMS1003;56333;51.306;17.056;2023-05-17T06:38:08;6.50;2.70;
69224;PMS1003;56333;51.306;17.056;2023-05-17T06:39:37;7.90;2.90;
69224;PMS1003;56333;51.306;17.056;2023-05-17T06:41:06;7.50;2.90;
69224;PMS1003;56333;51.306;17.056;2023-05-17T06:42:35;6.70;2.80;
69224;PMS1003;56333;51.306;17.056;2023-05-17T06:44:03;8.80;3.80;
69224;PMS1003;56333;51.306;17.056;2023-05-17T06:45:32;6.10;3.00;
69224;PMS1003;56333;51.306;17.056;2023-05-17T06:47:01;7.50;3.00;
69224;PMS1003;56333;51.306;17.056;2023-05-17T06:48:30;8.50;3.10;
69224;PMS1003;56333;51.306;17.056;2023-05-17T06:49:59;7.30;3.00;
69224;PMS1003;56333;51.306;17.056;2023-05-17T06:51:28;7.20;3.00;
69224;PMS1003;56333;51.306;17.056;2023-05-17T06:52:57;7.00;3.30;
69224;PMS1003;56333;51.306;17.056;2023-05-17T06:54:27;7.30;3.20;
69224;PMS1003;56333;51.306;17.056;2023-05-17T06:55:55;8.60;3.40;
69224;PMS1003;56333;51.306;17.056;2023-05-17T06:57:24;7.40;3.50;
69224;PMS1003;56333;51.306;17.056;2023-05-17T06:58:53;6.90;3.20;
69224;PMS1003;56333;51.306;17.056;2023-05-17T07:00:22;7.40;3.20;
69224;PMS1003;56333;51.306;17.056;2023-05-17T07:01:51;9.30;3.30;
69224;PMS1003;56333;51.306;17.056;2023-05-17T07:03:20;8.70;3.60;
69224;PMS1003;56333;51.306;17.056;2023-05-17T07:04:50;8.30;3.40;
69224;PMS1003;56333;51.306;17.056;2023-05-17T07:06:19;9.20;3.70;
69224;PMS1003;56333;51.306;17.056;2023-05-17T07:07:47;8.70;3.60;
69224;PMS1003;56333;51.306;17.056;2023-05-17T07:09:17;8.30;3.10;
69224;PMS1003;56333;51.306;17.056;2023-05-17T07:10:46;9.10;3.40;
69224;PMS1003;56333;51.306;17.056;2023-05-17T07:12:16;7.20;3.20;
69224;PMS1003;56333;51.306;17.056;2023-05-17T07:13:45;10.50;3.70;
69224;PMS1003;56333;51.306;17.056;2023-05-17T07:15:15;7.20;3.30;
69224;PMS1003;56333;51.306;17.056;2023-05-17T07:16:44;8.60;3.60;
69224;PMS1003;56333;51.306;17.056;2023-05-17T07:18:14;9.40;3.30;
69224;PMS1003;56333;51.306;17.056;2023-05-17T07:19:42;7.60;3.20;
69224;PMS1003;56333;51.306;17.056;2023-05-17T07:21:15;7.90;3.50;
69224;PMS1003;56333;51.306;17.056;2023-05-17T07:22:45;8.00;3.60;
69224;PMS1003;56333;51.306;17.056;2023-05-17T07:24:14;8.90;3.50;
69224;PMS1003;56333;51.306;17.056;2023-05-17T07:25:43;11.10;3.70;
69224;PMS1003;56333;51.306;17.056;2023-05-17T07:27:11;7.50;3.50;
69224;PMS1003;56333;51.306;17.056;2023-05-17T07:28:41;9.00;3.70;
69224;PMS1003;56333;51.306;17.056;2023-05-17T07:30:13;8.90;4.00;
69224;PMS1003;56333;51.306;17.056;2023-05-17T07:31:41;9.50;3.80;
69224;PMS1003;56333;51.306;17.056;2023-05-17T07:33:11;8.70;4.00;
69224;PMS1003;56333;51.306;17.056;2023-05-17T07:34:39;9.40;3.60;
69224;PMS1003;56333;51.306;17.056;2023-05-17T07:36:09;8.50;3.60;
69224;PMS1003;56333;51.306;17.056;2023-05-17T07:37:38;9.40;4.00;
69224;PMS1003;56333;51.306;17.056;2023-05-17T07:39:06;10.00;4.10;
69224;PMS1003;56333;51.306;17.056;2023-05-17T07:40:36;9.80;4.00;
69224;PMS1003;56333;51.306;17.056;2023-05-17T07:42:06;9.00;3.90;
69224;PMS1003;56333;51.306;17.056;2023-05-17T07:43:35;8.20;3.80;
69224;PMS1003;56333;51.306;17.056;2023-05-17T07:45:06;9.70;3.90;
69224;PMS1003;56333;51.306;17.056;2023-05-17T07:46:35;9.00;3.80;
69224;PMS1003;56333;51.306;17.056;2023-05-17T07:48:04;11.30;4.40;
69224;PMS1003;56333;51.306;17.056;2023-05-17T07:49:33;10.50;3.70;
69224;PMS1003;56333;51.306;17.056;2023-05-17T07:51:02;8.90;3.80;
69224;PMS1003;56333;51.306;17.056;2023-05-17T07:52:31;9.30;4.20;
69224;PMS1003;56333;51.306;17.056;2023-05-17T07:54:00;9.60;4.60;
69224;PMS1003;56333;51.306;17.056;2023-05-17T07:55:30;10.40;4.20;
69224;PMS1003;56333;51.306;17.056;2023-05-17T07:56:59;9.20;4.00;
69224;PMS1003;56333;51.306;17.056;2023-05-17T07:58:28;9.10;4.10;
69224;PMS1003;56333;51.306;17.056;2023-05-17T07:59:57;10.20;3.80;
69224;PMS1003;56333;51.306;17.056;2023-05-17T08:01:26;8.00;4.20;
69224;PMS1003;56333;51.306;17.056;2023-05-17T08:02:55;8.70;3.90;
69224;PMS1003;56333;51.306;17.056;2023-05-17T08:04:24;9.40;4.50;
69224;PMS1003;56333;51.306;17.056;2023-05-17T08:05:53;9.90;4.30;
69224;PMS1003;56333;51.306;17.056;2023-05-17T08:07:23;11.20;4.00;
69224;PMS1003;56333;51.306;17.056;2023-05-17T08:08:52;12.20;5.00;
69224;PMS1003;56333;51.306;17.056;2023-05-17T08:10:21;9.60;4.60;
69224;PMS1003;56333;51.306;17.056;2023-05-17T08:11:50;8.90;4.60;
69224;PMS1003;56333;51.306;17.056;2023-05-17T08:13:19;9.70;4.50;
69224;PMS1003;56333;51.306;17.056;2023-05-17T08:14:49;9.90;4.80;
69224;PMS1003;56333;51.306;17.056;2023-05-17T08:16:18;9.00;4.50;
69224;PMS1003;56333;51.306;17.056;2023-05-17T08:17:47;9.60;4.60;
69224;PMS1003;56333;51.306;17.056;2023-05-17T08:19:16;8.70;4.30;
69224;PMS1003;56333;51.306;17.056;2023-05-17T08:20:46;8.60;4.20;
69224;PMS1003;56333;51.306;17.056;2023-05-17T08:22:15;9.50;4.40;
69224;PMS1003;56333;51.306;17.056;2023-05-17T08:23:44;10.70;4.60;
69224;PMS1003;56333;51.306;17.056;2023-05-17T08:25:13;9.70;4.40;
69224;PMS1003;56333;51.306;17.056;2023-05-17T08:26:42;9.10;4.90;
69224;PMS1003;56333;51.306;17.056;2023-05-17T08:28:11;9.20;4.40;
69224;PMS1003;56333;51.306;17.056;2023-05-17T08:29:39;13.00;4.60;
69224;PMS1003;56333;51.306;17.056;2023-05-17T08:31:09;11.50;4.90;
69224;PMS1003;56333;51.306;17.056;2023-05-17T08:32:38;11.60;4.50;
69224;PMS1003;56333;51.306;17.056;2023-05-17T08:34:06;12.30;5.10;
69224;PMS1003;56333;51.306;17.056;2023-05-17T08:35:35;9.70;4.70;
69224;PMS1003;56333;51.306;17.056;2023-05-17T08:37:04;9.60;4.80;
69224;PMS1003;56333;51.306;17.056;2023-05-17T08:38:33;9.90;4.70;
69224;PMS1003;56333;51.306;17.056;2023-05-17T08:40:02;11.80;4.70;
69224;PMS1003;56333;51.306;17.056;2023-05-17T08:41:32;13.40;4.90;
69224;PMS1003;56333;51.306;17.056;2023-05-17T08:43:02;11.20;4.60;
69224;PMS1003;56333;51.306;17.056;2023-05-17T08:44:31;9.50;4.50;
69224;PMS1003;56333;51.306;17.056;2023-05-17T08:45:59;9.80;5.00;
69224;PMS1003;56333;51.306;17.056;2023-05-17T08:47:29;12.50;5.40;
69224;PMS1003;56333;51.306;17.056;2023-05-17T08:49:03;10.80;4.70;
69224;PMS1003;56333;51.306;17.056;2023-05-17T08:50:37;12.90;5.40;
69224;PMS1003;56333;51.306;17.056;2023-05-17T08:52:08;9.90;5.00;
69224;PMS1003;56333;51.306;17.056;2023-05-17T08:53:37;11.00;4.70;
69224;PMS1003;56333;51.306;17.056;2023-05-17T08:55:09;10.20;5.10;
69224;PMS1003;56333;51.306;17.056;2023-05-17T08:56:42;9.60;4.40;
69224;PMS1003;56333;51.306;17.056;2023-05-17T08:58:12;12.00;4.80;
69224;PMS1003;56333;51.306;17.056;2023-05-17T08:59:43;11.50;4.90;
69224;PMS1003;56333;51.306;17.056;2023-05-17T09:01:13;10.60;4.80;
69224;PMS1003;56333;51.306;17.056;2023-05-17T09:02:43;10.50;5.10;
69224;PMS1003;56333;51.306;17.056;2023-05-17T09:04:12;11.50;4.70;
69224;PMS1003;56333;51.306;17.056;2023-05-17T09:05:41;12.70;4.90;
69224;PMS1003;56333;51.306;17.056;2023-05-17T09:07:09;10.70;5.20;
69224;PMS1003;56333;51.306;17.056;2023-05-17T09:08:38;10.40;4.50;
69224;PMS1003;56333;51.306;17.056;2023-05-17T09:10:09;10.80;5.10;
69224;PMS1003;56333;51.306;17.056;2023-05-17T09:11:38;11.20;5.10;